Hmcs Charlottetown — CGAJ — position and weather

sailwx.info

Track history (hours):
 
Tides and Currents Weather Stations Pressure Air Temp Water Temp Dewpoint Dewpoint Depression Visibility Wind Speed Wind Dir Waves Ship Positions

Hmcs Charlottetown

Last reported at 2015-May-14 19:26 UTC. Time now 2015-May-23 14:53 UTC.
Position N 44°39' W 063°35'.
Warning: this ship's position is 8 days out of date.

; draft 7.5 m.

Type: Military. MMSI: 235830006.

Date/timePositionNaut miles runAvg speedWind from/ knotsBaromVisibWave heightAir tempDewpointWater temp
2015-May-14 19:26N 44°39' W 063°35'0 0.3
2015-May-14 18:33N 44°40' W 063°35'0 0.0
2015-May-14 17:33N 44°40' W 063°35'0 0.0
2015-May-14 16:33N 44°40' W 063°35'0 0.0
2015-May-14 15:33N 44°40' W 063°35'1 0.7
2015-May-14 14:33N 44°39' W 063°34'0 0.0
2015-May-14 13:33N 44°39' W 063°34'1 1.0
2015-May-14 12:33N 44°39' W 063°33'1714.2
2015-May-14 11:22N 44°23' W 063°24'1011.9
2015-May-14 10:33N 44°14' W 063°20'1311.9
2015-May-14 09:28N 44°01' W 063°20'32 0.9
2015-May-12 20:34N 44°31' W 063°31'7 7.3
2015-May-12 19:33N 44°39' W 063°33'9 0.3
2015-May-11 13:30N 44°30' W 063°30'1010.7
2015-May-11 12:33N 44°39' W 063°35'0 0.0
2015-May-11 11:33N 44°39' W 063°35'0 0.0
2015-May-11 10:34N 44°39' W 063°35'  
Track history (hours):
 
Tides and Currents Weather Stations Pressure Air Temp Water Temp Dewpoint Dewpoint Depression Visibility Wind Speed Wind Dir Waves Ship Positions

Hmcs Charlottetown

Last reported at 2015-May-14 19:26 UTC. Time now 2015-May-23 14:53 UTC.
Position N 44°39' W 063°35'.
Warning: this ship's position is 8 days out of date.

; draft 7.5 m.

Type: Military. MMSI: 235830006.

Date/timePositionNaut miles runAvg speedWind from/ knotsBaromVisibWave heightAir tempDewpointWater temp
2015-May-14 19:26N 44°39' W 063°35'0 0.3
2015-May-14 18:33N 44°40' W 063°35'0 0.0
2015-May-14 17:33N 44°40' W 063°35'0 0.0
2015-May-14 16:33N 44°40' W 063°35'0 0.0
2015-May-14 15:33N 44°40' W 063°35'1 0.7
2015-May-14 14:33N 44°39' W 063°34'0 0.0
2015-May-14 13:33N 44°39' W 063°34'1 1.0
2015-May-14 12:33N 44°39' W 063°33'1714.2
2015-May-14 11:22N 44°23' W 063°24'1011.9
2015-May-14 10:33N 44°14' W 063°20'1311.9
2015-May-14 09:28N 44°01' W 063°20'32 0.9
2015-May-12 20:34N 44°31' W 063°31'7 7.3
2015-May-12 19:33N 44°39' W 063°33'9 0.3
2015-May-11 13:30N 44°30' W 063°30'1010.7
2015-May-11 12:33N 44°39' W 063°35'0 0.0
2015-May-11 11:33N 44°39' W 063°35'0 0.0
2015-May-11 10:34N 44°39' W 063°35'  

Dump ship's entire track history